createdAt,value
2023-06-19T00:01:08.641Z,95.60
2023-06-19T00:03:35.436Z,96.50
2023-06-19T00:06:02.221Z,96.50
2023-06-19T00:08:28.985Z,96.50
2023-06-19T00:10:56.127Z,96.50
2023-06-19T00:13:22.863Z,96.30
2023-06-19T00:15:49.817Z,97.10
2023-06-19T00:18:18.178Z,97.30
2023-06-19T00:20:47.032Z,97.40
2023-06-19T00:23:15.699Z,97.30
2023-06-19T00:25:44.339Z,97.70
2023-06-19T00:28:14.656Z,97.90
2023-06-19T00:30:42.025Z,97.80
2023-06-19T00:33:09.697Z,98.00
2023-06-19T00:35:36.551Z,98.20
2023-06-19T00:38:03.594Z,98.50
2023-06-19T00:40:32.713Z,98.50
2023-06-19T00:43:00.254Z,98.10
2023-06-19T00:45:28.254Z,97.80
2023-06-19T00:47:56.230Z,97.70
2023-06-19T00:50:24.200Z,97.40
2023-06-19T00:52:51.663Z,98.30
2023-06-19T00:55:19.298Z,98.20
2023-06-19T00:57:47.158Z,98.20
2023-06-19T01:00:14.593Z,98.20
2023-06-19T01:02:41.975Z,98.50
2023-06-19T01:05:09.066Z,99.40
2023-06-19T01:08:00.131Z,99.70
2023-06-19T01:10:35.719Z,99.70
2023-06-19T01:13:14.758Z,99.90
2023-06-19T01:15:43.770Z,99.90
2023-06-19T01:18:13.998Z,99.90
2023-06-19T01:20:41.144Z,99.90
2023-06-19T01:23:09.628Z,99.90
2023-06-19T01:25:36.616Z,99.90
2023-06-19T01:28:06.772Z,99.90
2023-06-19T01:30:34.368Z,99.90
2023-06-19T01:33:24.237Z,99.90
2023-06-19T01:35:52.142Z,99.90
2023-06-19T01:38:21.063Z,99.90
2023-06-19T01:40:50.540Z,99.90
2023-06-19T01:43:18.017Z,99.90
2023-06-19T01:45:44.821Z,99.90
2023-06-19T01:48:11.870Z,99.80
2023-06-19T01:50:38.592Z,99.70
2023-06-19T01:53:05.527Z,99.40
2023-06-19T01:55:32.405Z,99.50
2023-06-19T01:57:59.123Z,99.70
2023-06-19T02:00:26.058Z,99.80
2023-06-19T02:02:52.979Z,99.70
2023-06-19T02:05:19.802Z,99.90
2023-06-19T02:07:46.584Z,99.90
2023-06-19T02:10:13.325Z,99.90
2023-06-19T02:12:40.087Z,99.90
2023-06-19T02:15:07.433Z,99.90
2023-06-19T02:17:34.391Z,99.90
2023-06-19T02:20:01.170Z,99.90
2023-06-19T02:22:27.990Z,99.90
2023-06-19T02:24:54.805Z,99.90
2023-06-19T02:27:21.552Z,99.90
2023-06-19T02:29:48.349Z,99.90
2023-06-19T02:32:15.161Z,99.90
2023-06-19T02:34:41.849Z,99.90
2023-06-19T02:37:09.251Z,99.90
2023-06-19T02:39:36.032Z,99.90
2023-06-19T02:42:02.821Z,99.90
2023-06-19T02:44:29.550Z,99.90
2023-06-19T02:46:56.294Z,99.90
2023-06-19T02:49:23.068Z,99.90
2023-06-19T02:51:49.782Z,99.90
2023-06-19T02:54:16.558Z,99.90
2023-06-19T02:56:43.321Z,99.90
2023-06-19T02:59:10.418Z,99.90
2023-06-19T03:01:37.273Z,99.90
2023-06-19T03:04:04.235Z,99.90
2023-06-19T03:06:31.850Z,99.90
2023-06-19T03:08:58.728Z,99.90
2023-06-19T03:11:25.495Z,99.90
2023-06-19T03:13:53.983Z,99.90
2023-06-19T03:16:21.849Z,99.90
2023-06-19T03:18:50.954Z,99.90
2023-06-19T03:21:20.960Z,99.90
2023-06-19T03:23:47.977Z,99.90
2023-06-19T03:26:14.738Z,99.90
2023-06-19T03:28:41.517Z,99.90
2023-06-19T03:31:08.337Z,99.90
2023-06-19T03:33:35.184Z,99.90
2023-06-19T03:36:01.951Z,99.90
2023-06-19T03:38:28.706Z,99.90
2023-06-19T03:40:55.590Z,99.90
2023-06-19T03:43:22.393Z,99.90
2023-06-19T03:45:49.169Z,99.90
2023-06-19T03:48:17.194Z,99.90
2023-06-19T03:50:44.186Z,99.90
2023-06-19T03:53:11.008Z,99.90
2023-06-19T03:55:37.844Z,99.90
2023-06-19T03:58:04.657Z,99.90
2023-06-19T04:00:31.383Z,99.90
2023-06-19T04:02:58.239Z,99.90
2023-06-19T04:05:25.852Z,99.90
2023-06-19T04:07:52.588Z,99.90
2023-06-19T04:10:19.339Z,99.90
2023-06-19T04:12:46.547Z,99.90
2023-06-19T04:15:13.463Z,99.90
2023-06-19T04:17:40.490Z,99.90
2023-06-19T04:20:12.703Z,99.90
2023-06-19T04:22:41.051Z,99.90
2023-06-19T04:25:09.197Z,99.90
2023-06-19T04:27:36.021Z,99.90
2023-06-19T04:30:05.267Z,99.90
2023-06-19T04:32:32.502Z,99.90
2023-06-19T04:35:00.041Z,99.90
2023-06-19T04:37:26.899Z,99.90
2023-06-19T04:39:53.757Z,99.90
2023-06-19T04:42:21.374Z,99.90
2023-06-19T04:44:48.754Z,99.90
2023-06-19T04:47:17.839Z,99.90
2023-06-19T04:49:44.720Z,99.90
2023-06-19T04:52:12.548Z,99.90
2023-06-19T04:54:39.464Z,99.90
2023-06-19T04:57:07.652Z,99.90
2023-06-19T04:59:34.693Z,99.90
2023-06-19T05:02:01.508Z,99.90
2023-06-19T05:04:28.601Z,99.90
2023-06-19T05:06:55.479Z,99.90
2023-06-19T05:09:22.188Z,99.90
2023-06-19T05:11:48.937Z,99.90
2023-06-19T05:14:15.683Z,99.90
2023-06-19T05:16:42.973Z,99.90
2023-06-19T05:19:10.036Z,99.90
2023-06-19T05:21:37.334Z,99.90
2023-06-19T05:24:04.429Z,99.90
2023-06-19T05:26:31.292Z,99.90
2023-06-19T05:28:59.877Z,99.90
2023-06-19T05:31:26.825Z,99.90
2023-06-19T05:33:53.558Z,99.90
2023-06-19T05:36:20.324Z,99.90
2023-06-19T05:38:47.162Z,99.90
2023-06-19T05:41:15.349Z,99.90
2023-06-19T05:43:42.111Z,99.90
2023-06-19T05:46:09.072Z,99.90
2023-06-19T05:48:35.959Z,99.90
2023-06-19T05:51:02.831Z,99.90
2023-06-19T05:53:29.648Z,99.90
2023-06-19T05:55:56.382Z,99.90
2023-06-19T05:58:24.988Z,99.90
2023-06-19T06:00:51.785Z,99.90
2023-06-19T06:03:18.579Z,99.90
2023-06-19T06:05:49.897Z,99.90
2023-06-19T06:08:16.732Z,99.90
2023-06-19T06:10:44.562Z,99.90
2023-06-19T06:13:11.487Z,99.90
2023-06-19T06:15:38.410Z,99.90
2023-06-19T06:18:05.237Z,99.90
2023-06-19T06:20:31.990Z,99.90
2023-06-19T06:22:59.445Z,99.90
2023-06-19T06:25:26.187Z,99.90
2023-06-19T06:27:52.902Z,99.90
2023-06-19T06:30:20.562Z,99.90
2023-06-19T06:32:47.516Z,99.90
2023-06-19T06:35:14.800Z,99.90
2023-06-19T06:37:41.655Z,99.90
2023-06-19T06:40:12.708Z,99.90
2023-06-19T06:42:40.207Z,99.90
2023-06-19T06:45:08.155Z,99.90
2023-06-19T06:47:36.307Z,99.90
2023-06-19T06:50:03.508Z,99.90
2023-06-19T06:52:31.605Z,99.90
2023-06-19T06:54:58.525Z,99.90
2023-06-19T06:57:25.647Z,99.90
2023-06-19T06:59:52.570Z,99.90
2023-06-19T07:02:19.712Z,99.90
2023-06-19T07:04:46.806Z,99.90
2023-06-19T07:07:13.501Z,99.90
2023-06-19T07:09:40.209Z,99.90
2023-06-19T07:12:08.229Z,99.90
2023-06-19T07:14:34.986Z,99.90
2023-06-19T07:17:01.850Z,99.90
2023-06-19T07:19:28.650Z,99.90
2023-06-19T07:21:55.816Z,99.90
2023-06-19T07:24:22.804Z,99.90
2023-06-19T07:26:50.027Z,99.90
2023-06-19T07:29:16.741Z,99.90
2023-06-19T07:31:43.962Z,99.90
2023-06-19T07:34:11.001Z,99.90
2023-06-19T07:36:37.811Z,99.90
2023-06-19T07:39:04.571Z,99.90
2023-06-19T07:41:31.564Z,99.90
2023-06-19T07:43:58.266Z,99.90
2023-06-19T07:46:25.052Z,99.90
2023-06-19T07:48:51.926Z,99.90
2023-06-19T07:51:18.764Z,99.90
2023-06-19T07:53:45.536Z,99.90
2023-06-19T07:56:12.340Z,99.90
2023-06-19T07:58:39.300Z,99.90
2023-06-19T08:01:06.218Z,99.90
2023-06-19T08:03:33.144Z,99.90
2023-06-19T08:06:00.068Z,99.90
2023-06-19T08:08:27.474Z,99.90
2023-06-19T08:10:54.335Z,99.90
2023-06-19T08:13:21.165Z,99.90
2023-06-19T08:15:48.274Z,99.90
2023-06-19T08:18:14.969Z,99.90
2023-06-19T08:20:41.737Z,99.90
2023-06-19T08:23:08.450Z,99.90
2023-06-19T08:25:35.193Z,99.90
2023-06-19T08:28:02.925Z,99.90
2023-06-19T08:30:29.889Z,99.90
2023-06-19T08:32:56.964Z,99.90
2023-06-19T08:35:23.753Z,99.90
2023-06-19T08:37:50.682Z,99.90
2023-06-19T08:40:17.924Z,99.90
2023-06-19T08:42:44.791Z,99.90
2023-06-19T08:45:11.775Z,99.90
2023-06-19T08:47:38.797Z,99.90
2023-06-19T08:50:06.740Z,99.90
2023-06-19T08:52:33.824Z,99.90
2023-06-19T08:55:02.004Z,99.90
2023-06-19T08:57:39.918Z,99.90
2023-06-19T09:00:13.751Z,99.90
2023-06-19T09:02:57.736Z,99.90
2023-06-19T09:05:32.327Z,99.90
2023-06-19T09:08:04.182Z,99.90
2023-06-19T09:10:31.948Z,99.90
2023-06-19T09:13:03.144Z,99.90
2023-06-19T09:15:38.450Z,99.90
2023-06-19T09:18:10.292Z,99.90
2023-06-19T09:20:48.975Z,99.70
2023-06-19T09:23:18.227Z,99.90
2023-06-19T09:25:48.752Z,99.90
2023-06-19T09:28:33.611Z,99.90
2023-06-19T09:31:04.048Z,99.90
2023-06-19T09:33:33.428Z,99.90
2023-06-19T09:36:02.365Z,99.90
2023-06-19T09:38:31.713Z,99.90
2023-06-19T09:41:01.968Z,99.90
2023-06-19T09:43:40.896Z,99.90
2023-06-19T09:46:09.077Z,99.80
2023-06-19T09:48:38.089Z,99.90
2023-06-19T09:51:29.486Z,99.90
2023-06-19T09:53:59.294Z,99.60
2023-06-19T09:56:28.079Z,99.80
2023-06-19T09:58:57.829Z,99.40
2023-06-19T10:01:25.419Z,99.50
2023-06-19T10:04:04.401Z,99.10
2023-06-19T10:06:31.266Z,97.80
2023-06-19T10:09:08.757Z,98.50
2023-06-19T10:11:52.448Z,97.10
2023-06-19T10:14:20.888Z,96.80
2023-06-19T10:16:48.229Z,97.00
2023-06-19T10:19:19.434Z,96.30
2023-06-19T10:21:49.484Z,96.20
2023-06-19T10:24:21.261Z,97.10
2023-06-19T10:27:02.722Z,96.20
2023-06-19T10:29:48.213Z,95.70
2023-06-19T10:32:22.848Z,95.70
2023-06-19T10:34:50.264Z,95.60
2023-06-19T10:37:17.522Z,95.40
2023-06-19T10:39:45.034Z,95.30
2023-06-19T10:42:12.051Z,94.70
2023-06-19T10:44:39.144Z,95.00
2023-06-19T10:47:08.396Z,94.50
2023-06-19T10:49:36.174Z,94.50
2023-06-19T10:52:03.019Z,94.50
2023-06-19T10:54:30.679Z,94.80
2023-06-19T10:56:58.558Z,94.40
2023-06-19T10:59:25.962Z,93.20
2023-06-19T11:01:53.936Z,93.40
2023-06-19T11:04:20.811Z,94.10
2023-06-19T11:06:48.877Z,94.00
2023-06-19T11:09:15.646Z,93.60
2023-06-19T11:11:42.327Z,93.00
2023-06-19T11:14:10.631Z,92.50
2023-06-19T11:16:43.120Z,92.10
2023-06-19T11:19:14.506Z,92.40
2023-06-19T11:21:41.300Z,91.80
2023-06-19T11:24:13.412Z,92.40
2023-06-19T11:26:50.439Z,92.60
2023-06-19T11:29:19.583Z,92.90
2023-06-19T11:31:48.258Z,92.60
2023-06-19T11:34:16.851Z,92.90
2023-06-19T11:36:44.612Z,93.00
2023-06-19T11:39:15.431Z,93.00
2023-06-19T11:41:44.298Z,93.60
2023-06-19T11:44:11.448Z,94.00
2023-06-19T11:46:38.512Z,94.20
2023-06-19T11:49:23.427Z,94.00
2023-06-19T11:51:50.336Z,94.30
2023-06-19T11:54:17.310Z,94.40
2023-06-19T11:56:44.238Z,94.40
2023-06-19T11:59:11.467Z,94.20
2023-06-19T12:01:39.546Z,94.50
2023-06-19T12:04:06.930Z,94.20
2023-06-19T12:06:36.437Z,94.10
2023-06-19T12:09:05.677Z,94.30
2023-06-19T12:11:32.557Z,93.60
2023-06-19T12:13:59.308Z,93.50
2023-06-19T12:16:26.504Z,93.30
2023-06-19T12:18:54.386Z,93.00
2023-06-19T12:21:34.075Z,93.00
2023-06-19T12:24:03.290Z,92.80
2023-06-19T12:26:30.261Z,92.60
2023-06-19T12:28:57.000Z,92.20
2023-06-19T12:31:23.771Z,92.30
2023-06-19T12:33:50.560Z,91.70
2023-06-19T12:36:17.600Z,91.70
2023-06-19T12:38:44.540Z,92.00
2023-06-19T12:41:12.499Z,91.30
2023-06-19T12:43:39.712Z,91.20
2023-06-19T12:46:06.574Z,90.70
2023-06-19T12:48:33.800Z,89.70
2023-06-19T12:51:00.587Z,89.90
2023-06-19T12:53:30.947Z,89.30
2023-06-19T12:56:04.055Z,88.70
2023-06-19T12:58:33.534Z,89.90
2023-06-19T13:01:00.387Z,89.50
2023-06-19T13:03:27.189Z,89.50
2023-06-19T13:05:54.111Z,89.70
2023-06-19T13:08:22.065Z,89.70
2023-06-19T13:10:48.910Z,89.60
2023-06-19T13:13:15.686Z,88.80
2023-06-19T13:15:42.463Z,89.00
2023-06-19T13:18:09.510Z,89.30
2023-06-19T13:20:36.469Z,88.70
2023-06-19T13:23:03.231Z,89.10
2023-06-19T13:25:29.925Z,88.50
2023-06-19T13:27:56.674Z,88.90
2023-06-19T13:30:23.737Z,89.20
2023-06-19T13:32:50.733Z,88.50
2023-06-19T13:35:17.652Z,88.60
2023-06-19T13:37:44.555Z,88.40
2023-06-19T13:40:11.479Z,87.20
2023-06-19T13:42:39.488Z,87.40
2023-06-19T13:45:06.798Z,87.20
2023-06-19T13:47:33.630Z,86.10
2023-06-19T13:50:01.151Z,86.20
2023-06-19T13:52:28.819Z,85.60
2023-06-19T13:54:56.028Z,85.50
2023-06-19T13:57:23.338Z,86.00
2023-06-19T13:59:50.342Z,86.30
2023-06-19T14:02:17.597Z,85.80
2023-06-19T14:04:44.735Z,85.60
2023-06-19T14:07:11.676Z,85.20
2023-06-19T14:09:38.984Z,85.10
2023-06-19T14:12:06.111Z,83.40
2023-06-19T14:14:33.014Z,83.90
2023-06-19T14:16:59.805Z,85.00
2023-06-19T14:19:26.741Z,86.00
2023-06-19T14:21:53.474Z,85.90
2023-06-19T14:24:20.243Z,85.80
2023-06-19T14:26:47.013Z,85.70
2023-06-19T14:29:16.337Z,84.70
2023-06-19T14:31:43.253Z,84.80
2023-06-19T14:34:10.146Z,85.40
2023-06-19T14:36:39.201Z,84.20
2023-06-19T14:39:06.220Z,83.10
2023-06-19T14:41:33.090Z,83.20
2023-06-19T14:44:00.007Z,82.30
2023-06-19T14:46:38.895Z,81.90
2023-06-19T14:49:14.139Z,81.60
2023-06-19T14:51:42.485Z,82.20
2023-06-19T14:54:09.508Z,81.20
2023-06-19T14:56:36.375Z,82.10
2023-06-19T14:59:03.156Z,83.10
2023-06-19T15:01:30.078Z,83.10
2023-06-19T15:03:57.041Z,82.60
2023-06-19T15:06:23.840Z,82.30
2023-06-19T15:08:50.568Z,82.30
2023-06-19T15:11:17.339Z,82.30
2023-06-19T15:13:44.026Z,82.20
2023-06-19T15:16:13.251Z,83.80
2023-06-19T15:18:42.166Z,82.10
2023-06-19T15:21:09.433Z,82.70
2023-06-19T15:23:36.319Z,80.60
2023-06-19T15:26:03.394Z,80.30
2023-06-19T15:28:30.127Z,80.70
2023-06-19T15:30:56.992Z,80.70
2023-06-19T15:33:23.953Z,79.00
2023-06-19T15:35:52.038Z,79.00
2023-06-19T15:38:19.014Z,78.40
2023-06-19T15:40:46.253Z,79.60
2023-06-19T15:43:12.953Z,79.30
2023-06-19T15:45:39.775Z,80.90
2023-06-19T15:48:07.263Z,78.00
2023-06-19T15:50:34.147Z,78.80
2023-06-19T15:53:01.178Z,78.50
2023-06-19T15:55:28.744Z,78.30
2023-06-19T15:57:55.640Z,78.90
2023-06-19T16:00:22.807Z,76.80
2023-06-19T16:02:51.885Z,76.80
2023-06-19T16:05:18.913Z,77.60
2023-06-19T16:07:46.183Z,78.00
2023-06-19T16:10:15.910Z,76.40
2023-06-19T16:12:42.651Z,78.30
2023-06-19T16:15:11.927Z,77.80
2023-06-19T16:17:38.833Z,78.40
2023-06-19T16:20:06.913Z,78.20
2023-06-19T16:22:35.104Z,77.60
2023-06-19T16:25:02.270Z,77.70
2023-06-19T16:27:29.027Z,78.40
2023-06-19T16:29:56.007Z,78.90
2023-06-19T16:32:22.825Z,78.90
2023-06-19T16:34:49.791Z,78.40
2023-06-19T16:37:16.521Z,79.60
2023-06-19T16:39:43.244Z,81.30
2023-06-19T16:42:10.041Z,82.00
2023-06-19T16:44:36.841Z,83.00
2023-06-19T16:47:03.946Z,83.20
2023-06-19T16:49:30.783Z,84.10
2023-06-19T16:51:57.578Z,84.50
2023-06-19T16:54:24.378Z,85.20
2023-06-19T16:56:51.134Z,85.20
2023-06-19T16:59:18.264Z,85.70
2023-06-19T17:01:46.519Z,86.80
2023-06-19T17:04:13.495Z,86.10
2023-06-19T17:06:40.272Z,86.60
2023-06-19T17:09:07.017Z,85.70
2023-06-19T17:11:33.855Z,85.80
2023-06-19T17:14:00.675Z,85.90
2023-06-19T17:16:27.477Z,86.30
2023-06-19T17:18:54.228Z,86.50
2023-06-19T17:21:20.965Z,86.60
2023-06-19T17:23:47.875Z,86.80
2023-06-19T17:26:14.803Z,87.30
2023-06-19T17:28:41.631Z,87.50
2023-06-19T17:31:08.656Z,87.30
2023-06-19T17:33:35.633Z,87.20
2023-06-19T17:36:03.961Z,87.50
2023-06-19T17:38:30.780Z,87.90
2023-06-19T17:40:57.518Z,87.90
2023-06-19T17:43:24.294Z,87.90
2023-06-19T17:45:51.250Z,88.30
2023-06-19T17:48:18.066Z,89.30
2023-06-19T17:50:44.985Z,89.30
2023-06-19T17:53:12.610Z,90.40
2023-06-19T17:55:39.399Z,91.00
2023-06-19T17:58:06.151Z,91.30
2023-06-19T18:00:32.935Z,91.60
2023-06-19T18:02:59.772Z,91.90
2023-06-19T18:05:27.423Z,91.90
2023-06-19T18:07:54.409Z,92.20
2023-06-19T18:10:22.235Z,92.50
2023-06-19T18:12:49.035Z,92.70
2023-06-19T18:15:15.883Z,92.90
2023-06-19T18:17:42.705Z,92.90
2023-06-19T18:20:10.695Z,92.90
2023-06-19T18:22:39.192Z,92.90
2023-06-19T18:25:06.463Z,93.00
2023-06-19T18:27:33.461Z,92.90
2023-06-19T18:30:04.063Z,93.00
2023-06-19T18:32:31.410Z,93.20
2023-06-19T18:34:59.798Z,93.20
2023-06-19T18:37:28.966Z,93.30
2023-06-19T18:39:55.742Z,93.40
2023-06-19T18:42:23.178Z,93.40
2023-06-19T18:44:50.385Z,93.50
2023-06-19T18:47:17.173Z,93.50
2023-06-19T18:49:43.965Z,93.50
2023-06-19T18:52:10.925Z,93.50
2023-06-19T18:54:37.634Z,93.70
2023-06-19T18:57:04.577Z,93.70
2023-06-19T18:59:31.529Z,93.90
2023-06-19T19:01:58.339Z,94.00
2023-06-19T19:04:25.153Z,94.00
2023-06-19T19:06:51.858Z,94.10
2023-06-19T19:09:18.643Z,94.20
2023-06-19T19:11:47.753Z,94.20
2023-06-19T19:14:14.616Z,94.30
2023-06-19T19:16:41.564Z,94.40
2023-06-19T19:19:08.408Z,94.60
2023-06-19T19:21:35.149Z,94.60
2023-06-19T19:24:01.877Z,94.60
2023-06-19T19:26:28.811Z,94.70
2023-06-19T19:28:55.496Z,94.70
2023-06-19T19:31:22.251Z,94.80
2023-06-19T19:33:49.077Z,94.90
2023-06-19T19:36:16.532Z,95.10
2023-06-19T19:38:43.279Z,95.20
2023-06-19T19:41:10.086Z,95.30
2023-06-19T19:43:36.978Z,95.40
2023-06-19T19:46:04.145Z,95.40
2023-06-19T19:48:31.043Z,95.60
2023-06-19T19:50:57.788Z,95.80
2023-06-19T19:53:24.519Z,96.30
2023-06-19T19:55:51.303Z,96.50
2023-06-19T19:58:18.081Z,96.50
2023-06-19T20:00:49.731Z,96.40
2023-06-19T20:03:17.455Z,96.50
2023-06-19T20:05:44.415Z,96.60
2023-06-19T20:08:11.105Z,96.60
2023-06-19T20:10:37.809Z,96.70
2023-06-19T20:13:04.535Z,96.70
2023-06-19T20:15:31.850Z,96.80
2023-06-19T20:17:58.615Z,97.20
2023-06-19T20:20:25.899Z,97.50
2023-06-19T20:22:52.984Z,97.80
2023-06-19T20:25:20.356Z,97.90
2023-06-19T20:27:58.861Z,98.00
2023-06-19T20:30:33.187Z,98.00
2023-06-19T20:33:00.149Z,98.60
2023-06-19T20:35:26.936Z,99.00
2023-06-19T20:37:53.726Z,99.40
2023-06-19T20:40:20.628Z,99.70
2023-06-19T20:42:47.804Z,99.90
2023-06-19T20:45:15.218Z,99.90
2023-06-19T20:47:42.085Z,99.90
2023-06-19T20:50:09.008Z,99.90
2023-06-19T20:52:35.979Z,99.90
2023-06-19T20:55:04.830Z,99.90
2023-06-19T20:57:32.910Z,99.90
2023-06-19T20:59:59.867Z,99.90
2023-06-19T21:02:26.695Z,99.90
2023-06-19T21:04:53.476Z,99.90
2023-06-19T21:07:20.340Z,99.90
2023-06-19T21:09:47.095Z,99.90
2023-06-19T21:12:13.909Z,99.90
2023-06-19T21:14:40.890Z,99.90
2023-06-19T21:17:07.871Z,99.90
2023-06-19T21:19:34.674Z,99.90
2023-06-19T21:22:01.592Z,99.90
2023-06-19T21:24:28.548Z,99.90
2023-06-19T21:26:55.297Z,99.90
2023-06-19T21:29:22.080Z,99.90
2023-06-19T21:31:48.944Z,99.90
2023-06-19T21:34:15.754Z,99.90
2023-06-19T21:36:42.551Z,99.90
2023-06-19T21:39:09.257Z,99.90
2023-06-19T21:41:37.583Z,99.90
2023-06-19T21:44:04.441Z,99.90
2023-06-19T21:46:31.334Z,99.90
2023-06-19T21:49:01.632Z,99.90
2023-06-19T21:51:28.558Z,99.90
2023-06-19T21:53:55.295Z,99.90
2023-06-19T21:56:22.148Z,99.90
2023-06-19T21:58:49.128Z,99.90
2023-06-19T22:01:15.839Z,99.90
2023-06-19T22:03:42.673Z,99.90
2023-06-19T22:06:09.585Z,99.90
2023-06-19T22:08:42.584Z,99.90
2023-06-19T22:11:10.376Z,99.90
2023-06-19T22:13:37.185Z,99.90
2023-06-19T22:16:04.117Z,99.90
2023-06-19T22:18:30.982Z,99.90
2023-06-19T22:20:57.755Z,99.90
2023-06-19T22:23:24.664Z,99.90
2023-06-19T22:25:51.446Z,99.90
2023-06-19T22:28:18.192Z,99.90
2023-06-19T22:30:45.403Z,99.90
2023-06-19T22:33:12.465Z,99.90
2023-06-19T22:35:39.208Z,99.90
2023-06-19T22:38:06.210Z,99.90
2023-06-19T22:40:33.159Z,99.90
2023-06-19T22:42:59.916Z,99.90
2023-06-19T22:45:27.235Z,99.90
2023-06-19T22:47:54.280Z,99.90
2023-06-19T22:50:23.197Z,99.90
2023-06-19T22:52:50.417Z,99.90
2023-06-19T22:55:17.344Z,99.90
2023-06-19T22:57:44.269Z,99.90
2023-06-19T23:00:13.894Z,99.90
2023-06-19T23:02:41.521Z,99.90
2023-06-19T23:05:09.188Z,99.90
2023-06-19T23:07:36.466Z,99.90
2023-06-19T23:10:10.322Z,99.90
2023-06-19T23:12:37.925Z,99.90
2023-06-19T23:15:07.556Z,99.90
2023-06-19T23:17:34.616Z,99.90
2023-06-19T23:20:01.392Z,99.90
2023-06-19T23:22:28.182Z,99.90
2023-06-19T23:24:55.369Z,99.90
2023-06-19T23:27:22.254Z,99.90
2023-06-19T23:29:51.979Z,99.90
2023-06-19T23:32:18.738Z,99.90
2023-06-19T23:34:45.474Z,99.90
2023-06-19T23:37:13.553Z,99.90
2023-06-19T23:39:40.303Z,99.90
2023-06-19T23:42:07.284Z,99.90
2023-06-19T23:44:34.135Z,99.90
2023-06-19T23:47:00.867Z,99.90
2023-06-19T23:49:27.582Z,99.90
2023-06-19T23:51:54.366Z,99.90
2023-06-19T23:54:22.164Z,99.90
2023-06-19T23:56:48.911Z,99.90
2023-06-19T23:59:15.706Z,99.90
